sensor_id;sensor_type;location;lat;lon;timestamp;P1;durP1;ratioP1;P2;durP2;ratioP2
28529;SDS011;15737;49.760;6.632;2023-03-20T00:01:37;2.50;;;1.97;;
28529;SDS011;15737;49.760;6.632;2023-03-20T00:04:03;2.20;;;2.00;;
28529;SDS011;15737;49.760;6.632;2023-03-20T00:06:28;3.27;;;2.40;;
28529;SDS011;15737;49.760;6.632;2023-03-20T00:08:55;2.67;;;1.60;;
28529;SDS011;15737;49.760;6.632;2023-03-20T00:13:46;2.70;;;1.83;;
28529;SDS011;15737;49.760;6.632;2023-03-20T00:16:12;1.40;;;1.30;;
28529;SDS011;15737;49.760;6.632;2023-03-20T00:18:38;2.33;;;1.77;;
28529;SDS011;15737;49.760;6.632;2023-03-20T00:21:08;2.80;;;2.60;;
28529;SDS011;15737;49.760;6.632;2023-03-20T00:23:40;2.23;;;1.87;;
28529;SDS011;15737;49.760;6.632;2023-03-20T00:26:07;2.37;;;2.17;;
28529;SDS011;15737;49.760;6.632;2023-03-20T00:28:41;2.90;;;2.60;;
28529;SDS011;15737;49.760;6.632;2023-03-20T00:31:41;4.17;;;2.70;;
28529;SDS011;15737;49.760;6.632;2023-03-20T00:34:02;5.27;;;1.80;;
28529;SDS011;15737;49.760;6.632;2023-03-20T00:36:30;2.63;;;1.70;;
28529;SDS011;15737;49.760;6.632;2023-03-20T00:38:56;1.37;;;1.20;;
28529;SDS011;15737;49.760;6.632;2023-03-20T00:44:14;3.73;;;1.30;;
28529;SDS011;15737;49.760;6.632;2023-03-20T00:46:46;1.47;;;1.30;;
28529;SDS011;15737;49.760;6.632;2023-03-20T00:49:14;2.20;;;1.60;;
28529;SDS011;15737;49.760;6.632;2023-03-20T00:51:40;1.50;;;1.40;;
28529;SDS011;15737;49.760;6.632;2023-03-20T00:54:12;2.30;;;2.03;;
28529;SDS011;15737;49.760;6.632;2023-03-20T00:56:43;2.73;;;1.67;;
28529;SDS011;15737;49.760;6.632;2023-03-20T00:59:18;1.60;;;1.50;;
28529;SDS011;15737;49.760;6.632;2023-03-20T01:01:47;1.40;;;1.30;;
28529;SDS011;15737;49.760;6.632;2023-03-20T01:04:13;1.53;;;1.40;;
28529;SDS011;15737;49.760;6.632;2023-03-20T01:06:41;3.10;;;1.70;;
28529;SDS011;15737;49.760;6.632;2023-03-20T01:09:07;4.10;;;1.97;;
28529;SDS011;15737;49.760;6.632;2023-03-20T01:11:33;1.53;;;1.43;;
28529;SDS011;15737;49.760;6.632;2023-03-20T01:13:59;2.33;;;1.83;;
28529;SDS011;15737;49.760;6.632;2023-03-20T01:16:26;2.20;;;1.53;;
28529;SDS011;15737;49.760;6.632;2023-03-20T01:18:52;3.13;;;2.60;;
28529;SDS011;15737;49.760;6.632;2023-03-20T01:21:18;1.93;;;1.73;;
28529;SDS011;15737;49.760;6.632;2023-03-20T01:23:45;1.70;;;1.60;;
28529;SDS011;15737;49.760;6.632;2023-03-20T01:26:30;4.37;;;2.83;;
28529;SDS011;15737;49.760;6.632;2023-03-20T01:28:58;5.30;;;3.10;;
28529;SDS011;15737;49.760;6.632;2023-03-20T01:31:24;3.93;;;2.73;;
28529;SDS011;15737;49.760;6.632;2023-03-20T01:33:50;6.03;;;3.63;;
28529;SDS011;15737;49.760;6.632;2023-03-20T01:36:17;3.47;;;2.47;;
28529;SDS011;15737;49.760;6.632;2023-03-20T01:38:46;4.27;;;3.60;;
28529;SDS011;15737;49.760;6.632;2023-03-20T01:41:19;4.80;;;3.13;;
28529;SDS011;15737;49.760;6.632;2023-03-20T01:43:46;7.30;;;3.33;;
28529;SDS011;15737;49.760;6.632;2023-03-20T01:46:33;6.93;;;4.50;;
28529;SDS011;15737;49.760;6.632;2023-03-20T01:49:06;7.77;;;4.73;;
28529;SDS011;15737;49.760;6.632;2023-03-20T01:51:52;7.13;;;4.33;;
28529;SDS011;15737;49.760;6.632;2023-03-20T01:54:21;7.50;;;5.17;;
28529;SDS011;15737;49.760;6.632;2023-03-20T01:56:51;7.77;;;5.07;;
28529;SDS011;15737;49.760;6.632;2023-03-20T02:02:04;10.07;;;6.03;;
28529;SDS011;15737;49.760;6.632;2023-03-20T02:04:38;9.03;;;4.97;;
28529;SDS011;15737;49.760;6.632;2023-03-20T02:07:08;8.77;;;4.93;;
28529;SDS011;15737;49.760;6.632;2023-03-20T02:09:34;11.20;;;6.60;;
28529;SDS011;15737;49.760;6.632;2023-03-20T02:12:02;11.13;;;6.03;;
28529;SDS011;15737;49.760;6.632;2023-03-20T02:14:28;15.53;;;6.70;;
28529;SDS011;15737;49.760;6.632;2023-03-20T02:16:56;10.40;;;6.23;;
28529;SDS011;15737;49.760;6.632;2023-03-20T02:19:30;11.50;;;6.60;;
28529;SDS011;15737;49.760;6.632;2023-03-20T02:22:11;9.87;;;6.37;;
28529;SDS011;15737;49.760;6.632;2023-03-20T02:27:52;16.73;;;7.87;;
28529;SDS011;15737;49.760;6.632;2023-03-20T02:33:11;10.93;;;6.60;;
28529;SDS011;15737;49.760;6.632;2023-03-20T02:36:10;11.67;;;7.40;;
28529;SDS011;15737;49.760;6.632;2023-03-20T02:41:22;12.60;;;6.73;;
28529;SDS011;15737;49.760;6.632;2023-03-20T02:47:13;10.27;;;6.23;;
28529;SDS011;15737;49.760;6.632;2023-03-20T02:49:57;9.10;;;6.23;;
28529;SDS011;15737;49.760;6.632;2023-03-20T02:52:45;8.03;;;5.57;;
28529;SDS011;15737;49.760;6.632;2023-03-20T02:55:18;12.57;;;6.73;;
28529;SDS011;15737;49.760;6.632;2023-03-20T03:00:39;10.43;;;6.37;;
28529;SDS011;15737;49.760;6.632;2023-03-20T03:03:19;11.47;;;7.17;;
28529;SDS011;15737;49.760;6.632;2023-03-20T03:08:22;13.50;;;6.70;;
28529;SDS011;15737;49.760;6.632;2023-03-20T03:10:53;13.27;;;7.07;;
28529;SDS011;15737;49.760;6.632;2023-03-20T03:13:46;12.77;;;7.30;;
28529;SDS011;15737;49.760;6.632;2023-03-20T03:16:17;15.10;;;6.97;;
28529;SDS011;15737;49.760;6.632;2023-03-20T03:18:46;12.00;;;6.63;;
28529;SDS011;15737;49.760;6.632;2023-03-20T03:21:15;10.80;;;6.43;;
28529;SDS011;15737;49.760;6.632;2023-03-20T03:23:44;17.33;;;8.13;;
28529;SDS011;15737;49.760;6.632;2023-03-20T03:26:13;12.33;;;6.27;;
28529;SDS011;15737;49.760;6.632;2023-03-20T03:28:44;11.70;;;5.80;;
28529;SDS011;15737;49.760;6.632;2023-03-20T03:31:13;8.73;;;6.13;;
28529;SDS011;15737;49.760;6.632;2023-03-20T03:33:42;13.23;;;7.20;;
28529;SDS011;15737;49.760;6.632;2023-03-20T03:36:12;16.30;;;7.90;;
28529;SDS011;15737;49.760;6.632;2023-03-20T03:39:05;11.00;;;6.67;;
28529;SDS011;15737;49.760;6.632;2023-03-20T03:41:54;9.67;;;6.00;;
28529;SDS011;15737;49.760;6.632;2023-03-20T03:44:30;10.00;;;6.00;;
28529;SDS011;15737;49.760;6.632;2023-03-20T03:49:43;14.63;;;8.27;;
28529;SDS011;15737;49.760;6.632;2023-03-20T03:52:14;10.53;;;6.27;;
28529;SDS011;15737;49.760;6.632;2023-03-20T03:54:47;17.23;;;8.30;;
28529;SDS011;15737;49.760;6.632;2023-03-20T03:57:18;15.00;;;8.17;;
28529;SDS011;15737;49.760;6.632;2023-03-20T03:59:48;16.23;;;8.60;;
28529;SDS011;15737;49.760;6.632;2023-03-20T04:02:17;14.67;;;7.17;;
28529;SDS011;15737;49.760;6.632;2023-03-20T04:04:45;14.57;;;8.23;;
28529;SDS011;15737;49.760;6.632;2023-03-20T04:07:14;10.53;;;6.13;;
28529;SDS011;15737;49.760;6.632;2023-03-20T04:09:40;13.77;;;5.53;;
28529;SDS011;15737;49.760;6.632;2023-03-20T04:12:30;9.97;;;6.63;;
28529;SDS011;15737;49.760;6.632;2023-03-20T04:15:04;11.40;;;6.33;;
28529;SDS011;15737;49.760;6.632;2023-03-20T04:17:30;17.27;;;7.43;;
28529;SDS011;15737;49.760;6.632;2023-03-20T04:19:56;13.73;;;8.33;;
28529;SDS011;15737;49.760;6.632;2023-03-20T04:22:21;16.47;;;9.20;;
28529;SDS011;15737;49.760;6.632;2023-03-20T04:24:47;15.83;;;7.93;;
28529;SDS011;15737;49.760;6.632;2023-03-20T04:27:13;18.17;;;9.77;;
28529;SDS011;15737;49.760;6.632;2023-03-20T04:29:39;15.00;;;7.53;;
28529;SDS011;15737;49.760;6.632;2023-03-20T04:32:05;17.77;;;7.93;;
28529;SDS011;15737;49.760;6.632;2023-03-20T04:34:31;13.13;;;7.00;;
28529;SDS011;15737;49.760;6.632;2023-03-20T04:36:57;5.47;;;4.60;;
28529;SDS011;15737;49.760;6.632;2023-03-20T04:39:22;10.53;;;6.33;;
28529;SDS011;15737;49.760;6.632;2023-03-20T04:41:48;8.13;;;4.47;;
28529;SDS011;15737;49.760;6.632;2023-03-20T04:44:13;5.10;;;3.80;;
28529;SDS011;15737;49.760;6.632;2023-03-20T04:46:39;15.67;;;7.53;;
28529;SDS011;15737;49.760;6.632;2023-03-20T04:49:04;12.83;;;6.50;;
28529;SDS011;15737;49.760;6.632;2023-03-20T04:51:30;10.83;;;6.30;;
28529;SDS011;15737;49.760;6.632;2023-03-20T04:53:55;11.73;;;5.47;;
28529;SDS011;15737;49.760;6.632;2023-03-20T04:56:21;10.97;;;6.00;;
28529;SDS011;15737;49.760;6.632;2023-03-20T04:58:47;11.63;;;5.57;;
28529;SDS011;15737;49.760;6.632;2023-03-20T05:01:12;15.57;;;7.80;;
28529;SDS011;15737;49.760;6.632;2023-03-20T05:03:38;15.10;;;6.67;;
28529;SDS011;15737;49.760;6.632;2023-03-20T05:06:03;9.87;;;6.00;;
28529;SDS011;15737;49.760;6.632;2023-03-20T05:08:29;11.67;;;6.20;;
28529;SDS011;15737;49.760;6.632;2023-03-20T05:10:55;8.93;;;5.60;;
28529;SDS011;15737;49.760;6.632;2023-03-20T05:13:21;12.17;;;6.17;;
28529;SDS011;15737;49.760;6.632;2023-03-20T05:15:46;10.63;;;5.13;;
28529;SDS011;15737;49.760;6.632;2023-03-20T05:18:12;11.63;;;5.70;;
28529;SDS011;15737;49.760;6.632;2023-03-20T05:20:38;10.40;;;5.43;;
28529;SDS011;15737;49.760;6.632;2023-03-20T05:23:03;10.83;;;6.33;;
28529;SDS011;15737;49.760;6.632;2023-03-20T05:25:29;10.30;;;6.13;;
28529;SDS011;15737;49.760;6.632;2023-03-20T05:27:55;9.97;;;4.43;;
28529;SDS011;15737;49.760;6.632;2023-03-20T05:30:20;9.97;;;5.70;;
28529;SDS011;15737;49.760;6.632;2023-03-20T05:32:49;9.53;;;4.63;;
28529;SDS011;15737;49.760;6.632;2023-03-20T05:35:16;12.50;;;4.70;;
28529;SDS011;15737;49.760;6.632;2023-03-20T05:37:42;10.20;;;5.40;;
28529;SDS011;15737;49.760;6.632;2023-03-20T05:40:08;12.30;;;5.43;;
28529;SDS011;15737;49.760;6.632;2023-03-20T05:42:37;9.40;;;5.93;;
28529;SDS011;15737;49.760;6.632;2023-03-20T05:45:03;12.83;;;5.97;;
28529;SDS011;15737;49.760;6.632;2023-03-20T05:47:29;10.83;;;4.93;;
28529;SDS011;15737;49.760;6.632;2023-03-20T05:49:55;9.50;;;4.70;;
28529;SDS011;15737;49.760;6.632;2023-03-20T05:52:20;10.07;;;5.20;;
28529;SDS011;15737;49.760;6.632;2023-03-20T05:54:46;13.13;;;4.93;;
28529;SDS011;15737;49.760;6.632;2023-03-20T05:57:12;8.73;;;5.63;;
28529;SDS011;15737;49.760;6.632;2023-03-20T05:59:37;13.43;;;6.43;;
28529;SDS011;15737;49.760;6.632;2023-03-20T06:02:03;13.73;;;4.57;;
28529;SDS011;15737;49.760;6.632;2023-03-20T06:04:28;9.63;;;4.80;;
28529;SDS011;15737;49.760;6.632;2023-03-20T06:06:54;7.50;;;4.30;;
28529;SDS011;15737;49.760;6.632;2023-03-20T06:09:20;8.07;;;4.70;;
28529;SDS011;15737;49.760;6.632;2023-03-20T06:11:45;10.10;;;5.23;;
28529;SDS011;15737;49.760;6.632;2023-03-20T06:14:11;9.97;;;4.87;;
28529;SDS011;15737;49.760;6.632;2023-03-20T06:16:36;8.83;;;4.90;;
28529;SDS011;15737;49.760;6.632;2023-03-20T06:19:02;6.93;;;4.67;;
28529;SDS011;15737;49.760;6.632;2023-03-20T06:21:28;8.63;;;4.47;;
28529;SDS011;15737;49.760;6.632;2023-03-20T06:23:53;11.87;;;6.27;;
28529;SDS011;15737;49.760;6.632;2023-03-20T06:26:19;10.30;;;4.77;;
28529;SDS011;15737;49.760;6.632;2023-03-20T06:28:45;14.87;;;6.53;;
28529;SDS011;15737;49.760;6.632;2023-03-20T06:31:11;10.23;;;5.07;;
28529;SDS011;15737;49.760;6.632;2023-03-20T06:33:37;8.67;;;5.20;;
28529;SDS011;15737;49.760;6.632;2023-03-20T06:36:03;11.37;;;5.80;;
28529;SDS011;15737;49.760;6.632;2023-03-20T06:38:29;11.30;;;5.73;;
28529;SDS011;15737;49.760;6.632;2023-03-20T06:40:54;9.80;;;5.40;;
28529;SDS011;15737;49.760;6.632;2023-03-20T06:43:20;9.77;;;5.27;;
28529;SDS011;15737;49.760;6.632;2023-03-20T06:45:45;9.80;;;4.93;;
28529;SDS011;15737;49.760;6.632;2023-03-20T06:48:12;9.40;;;4.70;;
28529;SDS011;15737;49.760;6.632;2023-03-20T06:50:37;9.87;;;5.53;;
28529;SDS011;15737;49.760;6.632;2023-03-20T06:53:06;9.60;;;4.07;;
28529;SDS011;15737;49.760;6.632;2023-03-20T06:55:31;8.43;;;4.57;;
28529;SDS011;15737;49.760;6.632;2023-03-20T06:57:57;11.03;;;5.83;;
28529;SDS011;15737;49.760;6.632;2023-03-20T07:00:22;10.60;;;5.43;;
28529;SDS011;15737;49.760;6.632;2023-03-20T07:02:48;11.57;;;6.90;;
28529;SDS011;15737;49.760;6.632;2023-03-20T07:05:14;8.20;;;5.20;;
28529;SDS011;15737;49.760;6.632;2023-03-20T07:07:40;11.20;;;5.33;;
28529;SDS011;15737;49.760;6.632;2023-03-20T07:10:06;3.83;;;2.37;;
28529;SDS011;15737;49.760;6.632;2023-03-20T07:12:33;6.97;;;3.57;;
28529;SDS011;15737;49.760;6.632;2023-03-20T07:14:59;8.60;;;3.00;;
28529;SDS011;15737;49.760;6.632;2023-03-20T07:17:24;9.03;;;4.70;;
28529;SDS011;15737;49.760;6.632;2023-03-20T07:19:50;8.33;;;4.87;;
28529;SDS011;15737;49.760;6.632;2023-03-20T07:22:20;9.77;;;5.27;;
28529;SDS011;15737;49.760;6.632;2023-03-20T07:24:48;5.20;;;2.90;;
28529;SDS011;15737;49.760;6.632;2023-03-20T07:27:14;4.97;;;3.17;;
28529;SDS011;15737;49.760;6.632;2023-03-20T07:29:40;7.50;;;4.67;;
28529;SDS011;15737;49.760;6.632;2023-03-20T07:32:06;9.17;;;4.40;;
28529;SDS011;15737;49.760;6.632;2023-03-20T07:34:31;8.67;;;4.93;;
28529;SDS011;15737;49.760;6.632;2023-03-20T07:36:57;5.93;;;3.70;;
28529;SDS011;15737;49.760;6.632;2023-03-20T07:39:22;11.03;;;3.77;;
28529;SDS011;15737;49.760;6.632;2023-03-20T07:41:48;8.17;;;4.83;;
28529;SDS011;15737;49.760;6.632;2023-03-20T07:44:13;9.73;;;5.37;;
28529;SDS011;15737;49.760;6.632;2023-03-20T07:46:39;8.77;;;5.37;;
28529;SDS011;15737;49.760;6.632;2023-03-20T07:49:05;14.87;;;3.93;;
28529;SDS011;15737;49.760;6.632;2023-03-20T07:51:31;8.83;;;5.17;;
28529;SDS011;15737;49.760;6.632;2023-03-20T07:53:57;12.97;;;5.90;;
28529;SDS011;15737;49.760;6.632;2023-03-20T07:56:23;8.77;;;5.20;;
28529;SDS011;15737;49.760;6.632;2023-03-20T07:58:49;12.23;;;6.43;;
28529;SDS011;15737;49.760;6.632;2023-03-20T08:01:14;8.43;;;4.07;;
28529;SDS011;15737;49.760;6.632;2023-03-20T08:03:40;13.90;;;5.77;;
28529;SDS011;15737;49.760;6.632;2023-03-20T08:06:06;10.23;;;5.00;;
28529;SDS011;15737;49.760;6.632;2023-03-20T08:08:33;12.53;;;5.73;;
28529;SDS011;15737;49.760;6.632;2023-03-20T08:10:59;10.07;;;4.33;;
28529;SDS011;15737;49.760;6.632;2023-03-20T08:13:25;12.60;;;7.30;;
28529;SDS011;15737;49.760;6.632;2023-03-20T08:15:51;14.17;;;7.10;;
28529;SDS011;15737;49.760;6.632;2023-03-20T08:18:16;10.33;;;5.63;;
28529;SDS011;15737;49.760;6.632;2023-03-20T08:20:43;12.20;;;6.73;;
28529;SDS011;15737;49.760;6.632;2023-03-20T08:23:09;7.40;;;4.03;;
28529;SDS011;15737;49.760;6.632;2023-03-20T08:25:35;12.23;;;6.57;;
28529;SDS011;15737;49.760;6.632;2023-03-20T08:28:01;12.13;;;7.00;;
28529;SDS011;15737;49.760;6.632;2023-03-20T08:30:28;9.97;;;6.70;;
28529;SDS011;15737;49.760;6.632;2023-03-20T08:32:53;12.47;;;7.27;;
28529;SDS011;15737;49.760;6.632;2023-03-20T08:35:19;8.47;;;5.50;;
28529;SDS011;15737;49.760;6.632;2023-03-20T08:37:45;10.17;;;6.27;;
28529;SDS011;15737;49.760;6.632;2023-03-20T08:40:11;12.07;;;6.27;;
28529;SDS011;15737;49.760;6.632;2023-03-20T08:42:36;9.27;;;5.77;;
28529;SDS011;15737;49.760;6.632;2023-03-20T08:45:02;5.37;;;3.50;;
28529;SDS011;15737;49.760;6.632;2023-03-20T08:47:28;9.97;;;5.67;;
28529;SDS011;15737;49.760;6.632;2023-03-20T08:49:53;11.40;;;6.43;;
28529;SDS011;15737;49.760;6.632;2023-03-20T08:52:19;9.63;;;5.17;;
28529;SDS011;15737;49.760;6.632;2023-03-20T08:54:45;9.40;;;6.37;;
28529;SDS011;15737;49.760;6.632;2023-03-20T08:57:11;10.77;;;6.37;;
28529;SDS011;15737;49.760;6.632;2023-03-20T08:59:36;13.47;;;6.17;;
28529;SDS011;15737;49.760;6.632;2023-03-20T09:02:02;10.93;;;5.90;;
28529;SDS011;15737;49.760;6.632;2023-03-20T09:04:28;13.07;;;7.43;;
28529;SDS011;15737;49.760;6.632;2023-03-20T09:06:53;11.23;;;6.40;;
28529;SDS011;15737;49.760;6.632;2023-03-20T09:09:20;6.40;;;3.47;;
28529;SDS011;15737;49.760;6.632;2023-03-20T09:11:50;12.60;;;6.20;;
28529;SDS011;15737;49.760;6.632;2023-03-20T09:14:16;2.70;;;1.97;;
28529;SDS011;15737;49.760;6.632;2023-03-20T09:16:42;4.57;;;2.47;;
28529;SDS011;15737;49.760;6.632;2023-03-20T09:19:07;6.63;;;3.43;;
28529;SDS011;15737;49.760;6.632;2023-03-20T09:21:33;4.77;;;1.83;;
28529;SDS011;15737;49.760;6.632;2023-03-20T09:23:58;12.90;;;6.70;;
28529;SDS011;15737;49.760;6.632;2023-03-20T09:26:24;7.20;;;4.77;;
28529;SDS011;15737;49.760;6.632;2023-03-20T09:28:49;6.80;;;3.33;;
28529;SDS011;15737;49.760;6.632;2023-03-20T09:31:17;8.03;;;4.63;;
28529;SDS011;15737;49.760;6.632;2023-03-20T09:33:43;8.87;;;4.83;;
28529;SDS011;15737;49.760;6.632;2023-03-20T09:36:09;7.00;;;3.97;;
28529;SDS011;15737;49.760;6.632;2023-03-20T09:38:35;6.53;;;3.73;;
28529;SDS011;15737;49.760;6.632;2023-03-20T09:41:02;2.37;;;2.17;;
28529;SDS011;15737;49.760;6.632;2023-03-20T09:46:31;11.67;;;4.87;;
28529;SDS011;15737;49.760;6.632;2023-03-20T09:51:54;5.77;;;3.47;;
28529;SDS011;15737;49.760;6.632;2023-03-20T09:54:27;3.20;;;2.00;;
28529;SDS011;15737;49.760;6.632;2023-03-20T09:57:02;7.57;;;4.27;;
28529;SDS011;15737;49.760;6.632;2023-03-20T09:59:28;11.77;;;4.90;;
28529;SDS011;15737;49.760;6.632;2023-03-20T10:02:03;9.33;;;4.27;;
28529;SDS011;15737;49.760;6.632;2023-03-20T10:04:31;4.93;;;2.97;;
28529;SDS011;15737;49.760;6.632;2023-03-20T10:06:58;4.57;;;2.77;;
28529;SDS011;15737;49.760;6.632;2023-03-20T10:09:27;4.97;;;3.30;;
28529;SDS011;15737;49.760;6.632;2023-03-20T10:17:30;4.07;;;3.03;;
28529;SDS011;15737;49.760;6.632;2023-03-20T10:23:07;7.40;;;3.63;;
28529;SDS011;15737;49.760;6.632;2023-03-20T10:25:58;2.80;;;1.83;;
28529;SDS011;15737;49.760;6.632;2023-03-20T10:31:36;5.33;;;2.83;;
28529;SDS011;15737;49.760;6.632;2023-03-20T10:37:11;8.23;;;4.33;;
28529;SDS011;15737;49.760;6.632;2023-03-20T10:42:36;7.13;;;3.83;;
28529;SDS011;15737;49.760;6.632;2023-03-20T10:45:11;4.40;;;2.67;;
28529;SDS011;15737;49.760;6.632;2023-03-20T10:47:55;1.97;;;0.77;;
28529;SDS011;15737;49.760;6.632;2023-03-20T10:50:27;6.87;;;3.20;;
28529;SDS011;15737;49.760;6.632;2023-03-20T10:55:28;4.23;;;3.30;;
28529;SDS011;15737;49.760;6.632;2023-03-20T10:58:30;4.87;;;3.10;;
28529;SDS011;15737;49.760;6.632;2023-03-20T11:00:50;6.83;;;3.87;;
28529;SDS011;15737;49.760;6.632;2023-03-20T11:03:24;5.00;;;3.30;;
28529;SDS011;15737;49.760;6.632;2023-03-20T11:06:01;8.73;;;3.27;;
28529;SDS011;15737;49.760;6.632;2023-03-20T11:08:30;6.33;;;2.73;;
28529;SDS011;15737;49.760;6.632;2023-03-20T11:11:03;3.37;;;2.30;;
28529;SDS011;15737;49.760;6.632;2023-03-20T11:14:02;5.33;;;2.93;;
28529;SDS011;15737;49.760;6.632;2023-03-20T11:16:29;4.70;;;2.83;;
28529;SDS011;15737;49.760;6.632;2023-03-20T11:19:03;6.17;;;2.77;;
28529;SDS011;15737;49.760;6.632;2023-03-20T11:21:35;6.30;;;5.90;;
28529;SDS011;15737;49.760;6.632;2023-03-20T11:26:50;4.10;;;3.03;;
28529;SDS011;15737;49.760;6.632;2023-03-20T11:29:35;3.03;;;1.90;;
28529;SDS011;15737;49.760;6.632;2023-03-20T11:34:54;3.53;;;2.43;;
28529;SDS011;15737;49.760;6.632;2023-03-20T11:37:27;4.17;;;2.30;;
28529;SDS011;15737;49.760;6.632;2023-03-20T11:40:06;6.20;;;2.90;;
28529;SDS011;15737;49.760;6.632;2023-03-20T11:42:39;5.97;;;3.27;;
28529;SDS011;15737;49.760;6.632;2023-03-20T11:45:17;5.53;;;5.03;;
28529;SDS011;15737;49.760;6.632;2023-03-20T11:47:42;7.10;;;2.43;;
28529;SDS011;15737;49.760;6.632;2023-03-20T11:50:25;4.00;;;1.90;;
28529;SDS011;15737;49.760;6.632;2023-03-20T11:53:21;2.30;;;1.60;;
28529;SDS011;15737;49.760;6.632;2023-03-20T11:56:03;2.50;;;1.60;;
28529;SDS011;15737;49.760;6.632;2023-03-20T11:58:29;2.80;;;1.57;;
28529;SDS011;15737;49.760;6.632;2023-03-20T12:00:55;4.90;;;2.40;;
28529;SDS011;15737;49.760;6.632;2023-03-20T12:06:13;2.40;;;1.40;;
28529;SDS011;15737;49.760;6.632;2023-03-20T12:08:42;3.73;;;1.97;;
28529;SDS011;15737;49.760;6.632;2023-03-20T12:11:26;1.40;;;0.83;;
28529;SDS011;15737;49.760;6.632;2023-03-20T12:14:12;2.10;;;1.47;;
28529;SDS011;15737;49.760;6.632;2023-03-20T12:17:11;3.47;;;1.70;;
28529;SDS011;15737;49.760;6.632;2023-03-20T12:19:54;1.97;;;1.60;;
28529;SDS011;15737;49.760;6.632;2023-03-20T12:22:27;3.03;;;2.80;;
28529;SDS011;15737;49.760;6.632;2023-03-20T12:25:03;3.87;;;2.10;;
28529;SDS011;15737;49.760;6.632;2023-03-20T12:27:42;3.17;;;2.60;;
28529;SDS011;15737;49.760;6.632;2023-03-20T12:30:17;4.47;;;2.07;;
28529;SDS011;15737;49.760;6.632;2023-03-20T12:32:53;2.50;;;2.30;;
28529;SDS011;15737;49.760;6.632;2023-03-20T12:35:31;1.50;;;1.40;;
28529;SDS011;15737;49.760;6.632;2023-03-20T12:38:01;4.90;;;2.20;;
28529;SDS011;15737;49.760;6.632;2023-03-20T12:40:50;8.30;;;7.77;;
28529;SDS011;15737;49.760;6.632;2023-03-20T12:43:26;8.13;;;7.57;;
28529;SDS011;15737;49.760;6.632;2023-03-20T12:46:03;9.33;;;8.60;;
28529;SDS011;15737;49.760;6.632;2023-03-20T12:48:52;8.43;;;7.83;;
28529;SDS011;15737;49.760;6.632;2023-03-20T12:51:34;5.30;;;3.03;;
28529;SDS011;15737;49.760;6.632;2023-03-20T12:57:16;11.30;;;6.67;;
28529;SDS011;15737;49.760;6.632;2023-03-20T13:05:43;10.97;;;10.50;;
28529;SDS011;15737;49.760;6.632;2023-03-20T13:13:51;4.93;;;3.83;;
28529;SDS011;15737;49.760;6.632;2023-03-20T13:19:21;10.97;;;10.20;;
28529;SDS011;15737;49.760;6.632;2023-03-20T13:24:49;5.97;;;3.07;;
28529;SDS011;15737;49.760;6.632;2023-03-20T13:30:11;5.47;;;4.03;;
28529;SDS011;15737;49.760;6.632;2023-03-20T13:32:48;5.73;;;1.63;;
28529;SDS011;15737;49.760;6.632;2023-03-20T13:38:49;4.33;;;1.47;;
28529;SDS011;15737;49.760;6.632;2023-03-20T13:41:21;4.60;;;1.13;;
28529;SDS011;15737;49.760;6.632;2023-03-20T13:43:50;4.10;;;1.30;;
28529;SDS011;15737;49.760;6.632;2023-03-20T13:46:24;1.43;;;1.33;;
28529;SDS011;15737;49.760;6.632;2023-03-20T13:48:57;3.90;;;2.53;;
28529;SDS011;15737;49.760;6.632;2023-03-20T13:52:11;3.60;;;1.20;;
28529;SDS011;15737;49.760;6.632;2023-03-20T13:59:46;10.68;;;2.33;;
28529;SDS011;15737;49.760;6.632;2023-03-20T14:05:11;49.40;;;46.93;;
28529;SDS011;15737;49.760;6.632;2023-03-20T14:07:47;62.10;;;59.13;;
28529;SDS011;15737;49.760;6.632;2023-03-20T14:12:56;56.80;;;53.93;;
28529;SDS011;15737;49.760;6.632;2023-03-20T14:15:53;38.93;;;37.00;;
28529;SDS011;15737;49.760;6.632;2023-03-20T14:18:21;14.00;;;13.20;;
28529;SDS011;15737;49.760;6.632;2023-03-20T14:20:50;9.90;;;9.40;;
28529;SDS011;15737;49.760;6.632;2023-03-20T14:23:20;3.33;;;2.00;;
28529;SDS011;15737;49.760;6.632;2023-03-20T14:25:56;2.67;;;1.37;;
28529;SDS011;15737;49.760;6.632;2023-03-20T14:28:24;3.50;;;1.60;;
28529;SDS011;15737;49.760;6.632;2023-03-20T14:31:10;1.93;;;1.20;;
28529;SDS011;15737;49.760;6.632;2023-03-20T14:47:42;2.27;;;1.17;;
28529;SDS011;15737;49.760;6.632;2023-03-20T14:50:21;2.10;;;1.10;;
28529;SDS011;15737;49.760;6.632;2023-03-20T14:52:54;7.00;;;1.27;;
28529;SDS011;15737;49.760;6.632;2023-03-20T14:55:33;4.17;;;1.40;;
28529;SDS011;15737;49.760;6.632;2023-03-20T15:04:34;1.13;;;0.80;;
28529;SDS011;15737;49.760;6.632;2023-03-20T15:07:14;0.70;;;0.70;;
28529;SDS011;15737;49.760;6.632;2023-03-20T15:09:54;3.80;;;1.07;;
28529;SDS011;15737;49.760;6.632;2023-03-20T15:12:24;1.70;;;0.87;;
28529;SDS011;15737;49.760;6.632;2023-03-20T15:14:59;0.50;;;0.50;;
28529;SDS011;15737;49.760;6.632;2023-03-20T15:17:33;2.13;;;0.97;;
28529;SDS011;15737;49.760;6.632;2023-03-20T15:20:02;5.87;;;1.20;;
28529;SDS011;15737;49.760;6.632;2023-03-20T15:22:31;1.40;;;0.93;;
28529;SDS011;15737;49.760;6.632;2023-03-20T15:24:57;2.40;;;1.00;;
28529;SDS011;15737;49.760;6.632;2023-03-20T15:27:24;0.90;;;0.90;;
28529;SDS011;15737;49.760;6.632;2023-03-20T15:29:54;1.97;;;0.80;;
28529;SDS011;15737;49.760;6.632;2023-03-20T15:32:21;1.30;;;1.20;;
28529;SDS011;15737;49.760;6.632;2023-03-20T15:34:47;2.00;;;0.97;;
28529;SDS011;15737;49.760;6.632;2023-03-20T15:37:15;2.37;;;1.00;;
28529;SDS011;15737;49.760;6.632;2023-03-20T15:39:45;2.47;;;1.10;;
28529;SDS011;15737;49.760;6.632;2023-03-20T15:42:13;1.20;;;1.10;;
28529;SDS011;15737;49.760;6.632;2023-03-20T15:44:41;2.53;;;1.00;;
28529;SDS011;15737;49.760;6.632;2023-03-20T15:49:34;1.43;;;1.33;;
28529;SDS011;15737;49.760;6.632;2023-03-20T15:52:04;3.47;;;1.10;;
28529;SDS011;15737;49.760;6.632;2023-03-20T15:54:37;6.13;;;1.40;;
28529;SDS011;15737;49.760;6.632;2023-03-20T15:57:05;2.73;;;1.10;;
28529;SDS011;15737;49.760;6.632;2023-03-20T15:59:31;8.70;;;1.30;;
28529;SDS011;15737;49.760;6.632;2023-03-20T16:01:58;1.10;;;1.00;;
28529;SDS011;15737;49.760;6.632;2023-03-20T16:04:25;1.27;;;1.07;;
28529;SDS011;15737;49.760;6.632;2023-03-20T16:06:55;5.20;;;1.13;;
28529;SDS011;15737;49.760;6.632;2023-03-20T16:09:22;2.73;;;1.00;;
28529;SDS011;15737;49.760;6.632;2023-03-20T16:11:59;3.57;;;1.00;;
28529;SDS011;15737;49.760;6.632;2023-03-20T16:14:28;4.33;;;1.07;;
28529;SDS011;15737;49.760;6.632;2023-03-20T16:16:56;0.70;;;0.70;;
28529;SDS011;15737;49.760;6.632;2023-03-20T16:19:24;1.77;;;1.03;;
28529;SDS011;15737;49.760;6.632;2023-03-20T16:22:01;3.43;;;1.53;;
28529;SDS011;15737;49.760;6.632;2023-03-20T16:25:01;1.07;;;0.83;;
28529;SDS011;15737;49.760;6.632;2023-03-20T16:27:28;5.00;;;1.30;;
28529;SDS011;15737;49.760;6.632;2023-03-20T16:29:57;3.80;;;1.30;;
28529;SDS011;15737;49.760;6.632;2023-03-20T16:34:53;1.63;;;0.90;;
28529;SDS011;15737;49.760;6.632;2023-03-20T16:37:28;1.00;;;0.90;;
28529;SDS011;15737;49.760;6.632;2023-03-20T16:40:10;0.90;;;0.90;;
28529;SDS011;15737;49.760;6.632;2023-03-20T16:43:11;3.87;;;1.80;;
28529;SDS011;15737;49.760;6.632;2023-03-20T16:45:47;2.60;;;1.17;;
28529;SDS011;15737;49.760;6.632;2023-03-20T16:51:09;3.93;;;1.00;;
28529;SDS011;15737;49.760;6.632;2023-03-20T16:53:45;2.00;;;1.40;;
28529;SDS011;15737;49.760;6.632;2023-03-20T16:56:13;1.50;;;1.07;;
28529;SDS011;15737;49.760;6.632;2023-03-20T16:58:46;3.13;;;1.27;;
28529;SDS011;15737;49.760;6.632;2023-03-20T17:01:17;3.90;;;1.00;;
28529;SDS011;15737;49.760;6.632;2023-03-20T17:03:47;1.83;;;0.90;;
28529;SDS011;15737;49.760;6.632;2023-03-20T17:08:48;2.73;;;1.10;;
28529;SDS011;15737;49.760;6.632;2023-03-20T17:11:32;3.97;;;1.17;;
28529;SDS011;15737;49.760;6.632;2023-03-20T17:14:00;1.90;;;1.03;;